createdAt,value
2023-09-07T00:00:30.563Z,4.50
2023-09-07T00:01:31.057Z,4.40
2023-09-07T00:02:39.116Z,4.40
2023-09-07T00:03:31.683Z,4.60
2023-09-07T00:04:30.545Z,4.40
2023-09-07T00:05:30.481Z,4.50
2023-09-07T00:06:30.511Z,4.60
2023-09-07T00:07:30.529Z,4.60
2023-09-07T00:08:30.706Z,4.20
2023-09-07T00:09:30.436Z,4.40
2023-09-07T00:10:30.469Z,4.50
2023-09-07T00:11:30.474Z,4.40
2023-09-07T00:12:30.369Z,4.50
2023-09-07T00:13:30.545Z,4.50
2023-09-07T00:14:30.391Z,4.80
2023-09-07T00:15:30.352Z,4.60
2023-09-07T00:16:30.401Z,4.60
2023-09-07T00:17:30.355Z,4.60
2023-09-07T00:18:30.725Z,4.80
2023-09-07T00:19:30.426Z,4.20
2023-09-07T00:20:30.283Z,4.50
2023-09-07T00:21:30.429Z,4.70
2023-09-07T00:22:30.362Z,4.20
2023-09-07T00:23:30.266Z,4.20
2023-09-07T00:24:30.217Z,4.50
2023-09-07T00:25:30.314Z,4.50
2023-09-07T00:26:30.218Z,4.40
2023-09-07T00:27:30.267Z,4.50
2023-09-07T00:28:30.570Z,4.30
2023-09-07T00:29:30.201Z,4.20
2023-09-07T00:30:30.153Z,4.60
2023-09-07T00:31:30.260Z,4.10
2023-09-07T00:32:30.160Z,4.40
2023-09-07T00:33:30.142Z,4.40
2023-09-07T00:34:30.149Z,4.50
2023-09-07T00:35:30.129Z,4.50
2023-09-07T00:36:30.055Z,4.80
2023-09-07T00:37:30.161Z,4.80
2023-09-07T00:38:30.277Z,5.10
2023-09-07T00:39:30.018Z,4.80
2023-09-07T00:40:30.063Z,4.80
2023-09-07T00:41:30.003Z,4.70
2023-09-07T00:42:29.969Z,4.90
2023-09-07T00:43:30.108Z,4.90
2023-09-07T00:44:29.990Z,5.00
2023-09-07T00:45:30.007Z,5.00
2023-09-07T00:46:29.916Z,4.80
2023-09-07T00:47:30.006Z,4.80
2023-09-07T00:48:30.170Z,5.50
2023-09-07T00:49:29.956Z,4.70
2023-09-07T00:50:29.942Z,4.30
2023-09-07T00:51:29.867Z,5.40
2023-09-07T00:52:30.000Z,5.00
2023-09-07T00:53:29.860Z,5.30
2023-09-07T00:54:29.914Z,5.20
2023-09-07T00:55:29.961Z,5.10
2023-09-07T00:56:29.847Z,5.10
2023-09-07T00:57:29.787Z,4.90
2023-09-07T00:58:30.118Z,5.20
2023-09-07T00:59:29.756Z,5.40
2023-09-07T01:00:29.791Z,5.20
2023-09-07T01:01:29.823Z,5.00
2023-09-07T01:02:29.892Z,5.00
2023-09-07T01:03:29.788Z,5.10
2023-09-07T01:04:29.781Z,5.10
2023-09-07T01:05:29.662Z,4.80
2023-09-07T01:06:29.672Z,5.30
2023-09-07T01:07:29.693Z,4.90
2023-09-07T01:08:30.065Z,4.90
2023-09-07T01:09:29.657Z,5.30
2023-09-07T01:10:29.636Z,5.10
2023-09-07T01:11:29.703Z,5.50
2023-09-07T01:12:29.601Z,5.00
2023-09-07T01:13:29.607Z,4.80
2023-09-07T01:14:29.612Z,5.10
2023-09-07T01:15:29.628Z,4.90
2023-09-07T01:16:29.696Z,5.10
2023-09-07T01:17:29.731Z,4.80
2023-09-07T01:18:29.677Z,5.50
2023-09-07T01:19:29.501Z,5.30
2023-09-07T01:20:29.496Z,5.00
2023-09-07T01:21:29.448Z,4.60
2023-09-07T01:22:29.537Z,4.90
2023-09-07T01:23:29.433Z,5.00
2023-09-07T01:24:29.398Z,5.00
2023-09-07T01:25:29.550Z,5.40
2023-09-07T01:26:29.398Z,4.90
2023-09-07T01:27:29.379Z,5.10
2023-09-07T01:28:29.698Z,5.20
2023-09-07T01:29:29.347Z,4.90
2023-09-07T01:30:29.387Z,4.90
2023-09-07T01:31:29.445Z,4.80
2023-09-07T01:32:29.359Z,4.90
2023-09-07T01:33:29.306Z,5.10
2023-09-07T01:34:29.376Z,4.80
2023-09-07T01:35:29.402Z,5.00
2023-09-07T01:36:29.277Z,5.10
2023-09-07T01:37:29.324Z,4.70
2023-09-07T01:38:29.544Z,4.80
2023-09-07T01:39:29.218Z,4.60
2023-09-07T01:40:29.243Z,5.10
2023-09-07T01:41:29.267Z,5.10
2023-09-07T01:42:29.220Z,5.20
2023-09-07T01:43:29.192Z,5.10
2023-09-07T01:44:29.172Z,4.90
2023-09-07T01:45:29.138Z,4.80
2023-09-07T01:46:29.217Z,4.80
2023-09-07T01:47:29.234Z,5.10
2023-09-07T01:48:29.434Z,4.90
2023-09-07T01:49:29.075Z,4.60
2023-09-07T01:50:29.071Z,4.80
2023-09-07T01:51:29.253Z,4.80
2023-09-07T01:52:29.077Z,5.10
2023-09-07T01:53:29.038Z,5.60
2023-09-07T01:54:29.043Z,4.80
2023-09-07T01:55:29.134Z,5.00
2023-09-07T01:56:29.098Z,5.00
2023-09-07T01:57:29.016Z,4.80
2023-09-07T01:58:29.282Z,4.70
2023-09-07T01:59:29.944Z,3.70
2023-09-07T02:00:28.994Z,3.10
2023-09-07T02:01:28.945Z,2.90
2023-09-07T02:02:28.942Z,2.60
2023-09-07T02:03:28.948Z,3.00
2023-09-07T02:04:28.903Z,2.90
2023-09-07T02:05:28.945Z,2.70
2023-09-07T02:06:28.878Z,2.90
2023-09-07T02:07:28.868Z,2.80
2023-09-07T02:08:29.051Z,3.00
2023-09-07T02:09:28.838Z,2.70
2023-09-07T02:10:28.831Z,2.80
2023-09-07T02:11:28.793Z,2.80
2023-09-07T02:12:28.941Z,3.10
2023-09-07T02:13:28.761Z,3.00
2023-09-07T02:14:28.736Z,3.20
2023-09-07T02:15:28.738Z,3.50
2023-09-07T02:16:28.778Z,2.90
2023-09-07T02:17:28.865Z,3.10
2023-09-07T02:18:28.800Z,3.10
2023-09-07T02:19:28.730Z,4.10
2023-09-07T02:20:28.722Z,4.20
2023-09-07T02:21:28.654Z,4.80
2023-09-07T02:22:28.641Z,4.50
2023-09-07T02:23:28.737Z,4.50
2023-09-07T02:24:28.646Z,3.90
2023-09-07T02:25:28.607Z,4.20
2023-09-07T02:26:28.628Z,4.20
2023-09-07T02:27:28.593Z,4.20
2023-09-07T02:28:28.641Z,4.00
2023-09-07T02:29:28.610Z,4.10
2023-09-07T02:30:28.742Z,4.10
2023-09-07T02:31:28.525Z,4.30
2023-09-07T02:32:28.558Z,4.20
2023-09-07T02:33:28.557Z,4.10
2023-09-07T02:34:28.494Z,3.80
2023-09-07T02:35:28.562Z,4.10
2023-09-07T02:36:28.533Z,4.10
2023-09-07T02:37:28.461Z,4.00
2023-09-07T02:38:28.471Z,4.20
2023-09-07T02:39:28.420Z,3.90
2023-09-07T02:40:28.414Z,4.10
2023-09-07T02:41:28.407Z,4.40
2023-09-07T02:42:28.396Z,4.50
2023-09-07T02:43:28.372Z,4.40
2023-09-07T02:44:28.336Z,4.60
2023-09-07T02:45:28.490Z,4.80
2023-09-07T02:46:28.339Z,3.90
2023-09-07T02:47:28.292Z,4.20
2023-09-07T02:48:28.406Z,4.30
2023-09-07T02:49:28.248Z,3.60
2023-09-07T02:50:28.273Z,4.00
2023-09-07T02:51:29.266Z,3.90
2023-09-07T02:52:28.240Z,4.20
2023-09-07T02:53:28.227Z,4.30
2023-09-07T02:54:28.254Z,4.20
2023-09-07T02:55:28.251Z,4.40
2023-09-07T02:56:28.222Z,4.70
2023-09-07T02:57:28.162Z,4.80
2023-09-07T02:58:28.188Z,4.90
2023-09-07T02:59:28.138Z,4.70
2023-09-07T03:00:28.179Z,4.80
2023-09-07T03:01:28.242Z,5.70
2023-09-07T03:02:28.138Z,5.40
2023-09-07T03:03:28.138Z,6.10
2023-09-07T03:04:28.084Z,5.80
2023-09-07T03:05:28.064Z,6.40
2023-09-07T03:06:28.161Z,6.20
2023-09-07T03:07:28.029Z,6.20
2023-09-07T03:08:28.018Z,5.90
2023-09-07T03:09:28.050Z,5.70
2023-09-07T03:10:28.015Z,6.00
2023-09-07T03:11:27.986Z,5.70
2023-09-07T03:12:27.973Z,5.70
2023-09-07T03:13:27.991Z,5.80
2023-09-07T03:14:27.934Z,5.10
2023-09-07T03:15:27.921Z,8.60
2023-09-07T03:16:28.010Z,6.30
2023-09-07T03:17:27.963Z,6.10
2023-09-07T03:18:27.881Z,6.00
2023-09-07T03:19:27.884Z,5.50
2023-09-07T03:20:27.889Z,6.40
2023-09-07T03:21:27.836Z,6.00
2023-09-07T03:22:27.855Z,5.70
2023-09-07T03:23:27.849Z,7.00
2023-09-07T03:24:27.848Z,6.40
2023-09-07T03:25:27.946Z,6.20
2023-09-07T03:26:27.832Z,6.40
2023-09-07T03:27:27.756Z,6.40
2023-09-07T03:28:27.762Z,6.00
2023-09-07T03:29:27.804Z,6.40
2023-09-07T03:30:27.743Z,6.30
2023-09-07T03:31:27.794Z,6.40
2023-09-07T03:32:27.688Z,5.90
2023-09-07T03:33:27.717Z,6.20
2023-09-07T03:34:27.787Z,6.50
2023-09-07T03:35:27.669Z,5.90
2023-09-07T03:36:27.733Z,6.20
2023-09-07T03:37:27.613Z,6.40
2023-09-07T03:38:27.621Z,6.00
2023-09-07T03:39:27.608Z,6.60
2023-09-07T03:40:27.692Z,5.90
2023-09-07T03:41:27.604Z,5.60
2023-09-07T03:42:27.653Z,5.70
2023-09-07T03:43:27.647Z,5.50
2023-09-07T03:44:27.568Z,6.60
2023-09-07T03:45:27.529Z,6.60
2023-09-07T03:46:27.594Z,5.90
2023-09-07T03:47:27.484Z,6.10
2023-09-07T03:48:27.566Z,5.90
2023-09-07T03:49:27.494Z,5.90
2023-09-07T03:50:27.473Z,6.10
2023-09-07T03:51:27.436Z,5.90
2023-09-07T03:52:27.524Z,6.10
2023-09-07T03:53:27.424Z,5.60
2023-09-07T03:54:27.509Z,5.60
2023-09-07T03:55:27.373Z,5.70
2023-09-07T03:56:27.421Z,6.00
2023-09-07T03:57:27.432Z,6.00
2023-09-07T03:58:27.412Z,5.40
2023-09-07T03:59:27.314Z,5.80
2023-09-07T04:00:27.449Z,5.10
2023-09-07T04:01:27.422Z,6.10
2023-09-07T04:02:27.489Z,5.60
2023-09-07T04:03:27.491Z,5.20
2023-09-07T04:04:27.373Z,6.00
2023-09-07T04:05:27.261Z,5.70
2023-09-07T04:06:27.300Z,5.30
2023-09-07T04:07:27.225Z,5.50
2023-09-07T04:08:27.288Z,5.40
2023-09-07T04:09:27.233Z,5.90
2023-09-07T04:10:27.233Z,5.20
2023-09-07T04:11:27.136Z,5.50
2023-09-07T04:12:27.238Z,5.60
2023-09-07T04:13:27.168Z,6.20
2023-09-07T04:14:27.259Z,5.60
2023-09-07T04:15:27.107Z,5.50
2023-09-07T04:16:27.189Z,5.20
2023-09-07T04:17:27.066Z,5.60
2023-09-07T04:18:27.158Z,6.40
2023-09-07T04:19:27.095Z,5.90
2023-09-07T04:20:27.095Z,5.60
2023-09-07T04:21:27.051Z,5.90
2023-09-07T04:22:27.064Z,5.20
2023-09-07T04:23:27.015Z,5.20
2023-09-07T04:24:27.125Z,5.30
2023-09-07T04:25:26.992Z,5.70
2023-09-07T04:26:26.982Z,5.60
2023-09-07T04:27:27.005Z,5.60
2023-09-07T04:28:26.995Z,5.50
2023-09-07T04:29:26.979Z,5.60
2023-09-07T04:30:27.069Z,5.70
2023-09-07T04:31:26.942Z,5.50
2023-09-07T04:32:26.945Z,5.60
2023-09-07T04:33:26.921Z,5.10
2023-09-07T04:34:26.881Z,4.90
2023-09-07T04:35:26.901Z,4.60
2023-09-07T04:36:26.950Z,5.20
2023-09-07T04:37:26.888Z,5.10
2023-09-07T04:38:26.830Z,5.40
2023-09-07T04:39:26.758Z,5.00
2023-09-07T04:40:26.783Z,4.80
2023-09-07T04:41:26.789Z,4.70
2023-09-07T04:42:26.833Z,4.10
2023-09-07T04:43:26.742Z,4.60
2023-09-07T04:44:26.730Z,4.20
2023-09-07T04:45:26.768Z,3.90
2023-09-07T04:46:26.795Z,4.40
2023-09-07T04:47:26.750Z,4.10
2023-09-07T04:48:26.867Z,4.50
2023-09-07T04:49:26.623Z,4.30
2023-09-07T04:50:26.741Z,4.50
2023-09-07T04:51:26.691Z,4.00
2023-09-07T04:52:26.600Z,4.70
2023-09-07T04:53:26.580Z,4.90
2023-09-07T04:54:26.612Z,4.70
2023-09-07T04:55:26.568Z,4.40
2023-09-07T04:56:26.666Z,5.30
2023-09-07T04:57:26.550Z,4.80
2023-09-07T04:58:26.600Z,4.80
2023-09-07T04:59:26.519Z,4.50
2023-09-07T05:00:26.552Z,4.70
2023-09-07T05:01:26.539Z,5.30
2023-09-07T05:02:26.542Z,4.90
2023-09-07T05:03:26.615Z,5.20
2023-09-07T05:04:26.609Z,5.30
2023-09-07T05:05:26.474Z,5.40
2023-09-07T05:06:26.492Z,5.30
2023-09-07T05:07:26.396Z,5.30
2023-09-07T05:08:26.473Z,4.70
2023-09-07T05:09:26.392Z,5.00
2023-09-07T05:10:26.440Z,4.90
2023-09-07T05:11:26.423Z,5.00
2023-09-07T05:12:26.469Z,5.00
2023-09-07T05:13:26.387Z,4.60
2023-09-07T05:14:26.397Z,4.70
2023-09-07T05:15:26.296Z,5.10
2023-09-07T05:16:26.315Z,4.90
2023-09-07T05:17:26.390Z,4.80
2023-09-07T05:18:26.327Z,5.00
2023-09-07T05:19:26.285Z,5.00
2023-09-07T05:20:26.293Z,4.80
2023-09-07T05:21:26.431Z,4.80
2023-09-07T05:22:26.228Z,4.80
2023-09-07T05:23:26.183Z,4.70
2023-09-07T05:24:26.235Z,4.50
2023-09-07T05:25:26.186Z,4.40
2023-09-07T05:26:26.224Z,4.50
2023-09-07T05:27:26.195Z,4.30
2023-09-07T05:28:26.215Z,4.10
2023-09-07T05:29:26.212Z,4.60
2023-09-07T05:30:26.190Z,4.70
2023-09-07T05:31:26.179Z,4.50
2023-09-07T05:32:26.416Z,4.70
2023-09-07T05:33:26.111Z,5.10
2023-09-07T05:34:26.069Z,4.90
2023-09-07T05:35:26.132Z,4.40
2023-09-07T05:36:26.059Z,3.80
2023-09-07T05:37:26.062Z,4.30
2023-09-07T05:38:26.022Z,4.70
2023-09-07T05:39:26.034Z,4.30
2023-09-07T05:40:26.264Z,4.30
2023-09-07T05:41:25.998Z,4.10
2023-09-07T05:42:26.676Z,4.00
2023-09-07T05:44:35.280Z,4.30
2023-09-07T05:45:35.299Z,4.40
2023-09-07T05:46:35.377Z,4.70
2023-09-07T05:47:35.391Z,4.50
2023-09-07T05:49:44.597Z,4.20
2023-09-07T05:50:44.612Z,4.10
2023-09-07T05:51:44.562Z,4.50
2023-09-07T05:52:44.791Z,4.90
2023-09-07T05:53:44.538Z,4.40
2023-09-07T05:54:44.608Z,4.70
2023-09-07T05:55:44.676Z,4.40
2023-09-07T05:56:44.524Z,3.90
2023-09-07T05:57:44.486Z,4.40
2023-09-07T05:58:44.558Z,4.40
2023-09-07T05:59:44.467Z,4.20
2023-09-07T06:00:44.658Z,4.50
2023-09-07T06:01:44.432Z,4.40
2023-09-07T06:02:44.741Z,3.90
2023-09-07T06:04:19.781Z,4.00
2023-09-07T06:04:44.508Z,3.60
2023-09-07T06:05:44.417Z,3.70
2023-09-07T06:06:44.418Z,3.50
2023-09-07T06:07:44.597Z,3.70
2023-09-07T06:08:44.386Z,3.70
2023-09-07T06:09:44.464Z,3.60
2023-09-07T06:10:44.332Z,3.60
2023-09-07T06:11:44.422Z,4.00
2023-09-07T06:12:44.315Z,4.00
2023-09-07T06:13:44.336Z,3.70
2023-09-07T06:14:44.341Z,3.90
2023-09-07T06:15:44.371Z,3.90
2023-09-07T06:16:44.490Z,3.70
2023-09-07T06:17:44.346Z,3.70
2023-09-07T06:18:44.238Z,4.20
2023-09-07T06:19:44.407Z,4.10
2023-09-07T06:20:44.200Z,3.90
2023-09-07T06:21:44.309Z,4.00
2023-09-07T06:22:44.207Z,3.80
2023-09-07T06:23:44.275Z,3.80
2023-09-07T06:24:44.150Z,3.80
2023-09-07T06:25:44.174Z,3.80
2023-09-07T06:26:44.181Z,3.40
2023-09-07T06:27:44.230Z,4.30
2023-09-07T06:28:44.189Z,4.20
2023-09-07T06:29:44.100Z,4.00
2023-09-07T06:30:44.096Z,3.70
2023-09-07T06:31:44.222Z,2.80
2023-09-07T06:32:44.055Z,2.40
2023-09-07T06:33:44.132Z,3.90
2023-09-07T06:34:44.052Z,4.30
2023-09-07T06:35:44.007Z,3.70
2023-09-07T06:36:48.380Z,3.80
2023-09-07T06:37:44.004Z,3.80
2023-09-07T06:38:43.986Z,3.90
2023-09-07T06:39:44.062Z,3.40
2023-09-07T06:40:43.961Z,3.60
2023-09-07T06:41:44.035Z,3.40
2023-09-07T06:42:43.935Z,2.90
2023-09-07T06:43:43.938Z,3.80
2023-09-07T06:44:43.970Z,4.10
2023-09-07T06:45:43.893Z,4.50
2023-09-07T06:46:43.946Z,4.10
2023-09-07T06:47:43.905Z,4.10
2023-09-07T06:48:43.795Z,3.80
2023-09-07T06:49:43.845Z,4.00
2023-09-07T06:50:43.938Z,3.80
2023-09-07T06:51:43.773Z,4.00
2023-09-07T06:52:43.797Z,3.10
2023-09-07T06:53:56.891Z,3.60
2023-09-07T06:54:44.739Z,3.80
2023-09-07T06:55:43.754Z,3.70
2023-09-07T06:56:43.699Z,4.00
2023-09-07T06:57:43.725Z,4.10
2023-09-07T06:58:43.710Z,3.60
2023-09-07T06:59:43.684Z,4.10
2023-09-07T07:00:43.660Z,4.10
2023-09-07T07:01:43.757Z,3.30
2023-09-07T07:02:43.713Z,4.20
2023-09-07T07:03:43.809Z,3.70
2023-09-07T07:04:43.717Z,4.30
2023-09-07T07:05:43.657Z,3.90
2023-09-07T07:06:43.571Z,3.40
2023-09-07T07:07:43.614Z,3.80
2023-09-07T07:08:43.578Z,3.40
2023-09-07T07:09:43.599Z,4.70
2023-09-07T07:10:43.636Z,4.50
2023-09-07T07:11:43.525Z,4.00
2023-09-07T07:12:43.527Z,4.10
2023-09-07T07:13:43.557Z,4.40
2023-09-07T07:14:43.473Z,4.40
2023-09-07T07:15:43.509Z,4.20
2023-09-07T07:16:43.624Z,3.60
2023-09-07T07:17:43.535Z,4.30
2023-09-07T07:18:44.552Z,3.70
2023-09-07T07:19:43.428Z,4.40
2023-09-07T07:20:43.409Z,3.50
2023-09-07T07:21:43.459Z,4.40
2023-09-07T07:22:43.542Z,3.30
2023-09-07T07:23:43.380Z,3.60
2023-09-07T07:24:43.364Z,4.00
2023-09-07T07:25:43.399Z,4.00
2023-09-07T07:26:43.298Z,3.60
2023-09-07T07:27:43.324Z,4.00
2023-09-07T07:28:43.305Z,3.20
2023-09-07T07:29:43.336Z,2.20
2023-09-07T07:30:43.321Z,3.70
2023-09-07T07:31:43.305Z,3.60
2023-09-07T07:32:43.283Z,4.00
2023-09-07T07:33:43.289Z,3.80
2023-09-07T07:34:43.315Z,3.50
2023-09-07T07:35:43.256Z,4.20
2023-09-07T07:36:43.160Z,3.60
2023-09-07T07:37:43.230Z,3.60
2023-09-07T07:38:43.182Z,3.60
2023-09-07T07:39:43.180Z,3.20
2023-09-07T07:40:43.191Z,3.50
2023-09-07T07:41:43.967Z,3.80
2023-09-07T07:42:43.178Z,2.70
2023-09-07T07:43:43.186Z,3.60
2023-09-07T07:44:43.078Z,3.20
2023-09-07T07:45:43.100Z,3.50
2023-09-07T07:46:43.182Z,3.40
2023-09-07T07:47:43.087Z,2.50
2023-09-07T07:48:42.996Z,3.60
2023-09-07T07:49:43.027Z,3.50
2023-09-07T07:50:42.977Z,3.30
2023-09-07T07:51:42.978Z,3.70
2023-09-07T07:52:43.017Z,2.50
2023-09-07T07:53:43.059Z,3.40
2023-09-07T07:54:42.960Z,3.00
2023-09-07T07:55:42.974Z,3.60
2023-09-07T07:56:42.900Z,3.80
2023-09-07T07:57:42.928Z,3.90
2023-09-07T07:58:42.916Z,3.70
2023-09-07T07:59:42.942Z,3.60
2023-09-07T08:00:42.876Z,4.00
2023-09-07T08:01:42.898Z,3.60
2023-09-07T08:02:42.828Z,3.50
2023-09-07T08:03:42.906Z,3.70
2023-09-07T08:04:43.025Z,3.50
2023-09-07T08:05:42.785Z,2.80
2023-09-07T08:06:42.770Z,2.80
2023-09-07T08:07:42.798Z,3.70
2023-09-07T08:08:42.783Z,3.80
2023-09-07T08:09:42.800Z,3.50
2023-09-07T08:10:42.881Z,3.70
2023-09-07T08:11:42.752Z,3.40
2023-09-07T08:12:42.712Z,3.40
2023-09-07T08:13:42.748Z,3.70
2023-09-07T08:14:42.665Z,2.10
2023-09-07T08:15:42.818Z,3.30
2023-09-07T08:16:42.805Z,3.10
2023-09-07T08:17:42.989Z,3.00
2023-09-07T08:18:42.682Z,4.00
2023-09-07T08:19:42.645Z,2.60
2023-09-07T08:20:42.712Z,3.20
2023-09-07T08:21:42.644Z,3.10
2023-09-07T08:22:42.745Z,3.10
2023-09-07T08:23:42.680Z,3.60
2023-09-07T08:24:42.590Z,3.30
2023-09-07T08:25:42.609Z,3.40
2023-09-07T08:26:42.531Z,3.60
2023-09-07T08:27:42.724Z,2.90
2023-09-07T08:28:42.536Z,3.40
2023-09-07T08:29:42.509Z,3.50
2023-09-07T08:30:42.666Z,3.40
2023-09-07T08:31:42.561Z,3.50
2023-09-07T08:32:42.655Z,3.70
2023-09-07T08:33:42.547Z,4.00
2023-09-07T08:34:42.513Z,3.40
2023-09-07T08:35:42.480Z,3.50
2023-09-07T08:36:42.479Z,3.20
2023-09-07T08:37:42.478Z,3.80
2023-09-07T08:38:42.354Z,3.30
2023-09-07T08:39:42.452Z,2.50
2023-09-07T08:40:42.485Z,3.60
2023-09-07T08:41:58.169Z,3.10
2023-09-07T08:42:43.340Z,3.40
2023-09-07T08:43:42.379Z,3.00
2023-09-07T08:44:42.307Z,3.80
2023-09-07T08:45:42.360Z,2.60
2023-09-07T08:46:42.476Z,3.70
2023-09-07T08:47:42.362Z,3.70
2023-09-07T08:48:42.324Z,3.50
2023-09-07T08:49:42.376Z,3.00
2023-09-07T08:50:42.177Z,3.90
2023-09-07T08:51:42.284Z,3.60
2023-09-07T08:52:42.326Z,3.50
2023-09-07T08:53:42.197Z,3.50
2023-09-07T08:54:42.151Z,3.50
2023-09-07T08:55:42.267Z,3.70
2023-09-07T08:56:42.147Z,3.30
2023-09-07T08:57:42.151Z,2.80
2023-09-07T08:58:42.222Z,3.80
2023-09-07T08:59:42.239Z,3.60
2023-09-07T09:00:42.204Z,3.80
2023-09-07T09:01:42.211Z,3.20
2023-09-07T09:02:42.219Z,3.40
2023-09-07T09:03:42.121Z,3.40
2023-09-07T09:04:42.270Z,3.30
2023-09-07T09:05:42.064Z,3.60
2023-09-07T09:06:42.023Z,3.40
2023-09-07T09:07:42.071Z,3.40
2023-09-07T09:08:41.992Z,3.00
2023-09-07T09:09:41.989Z,3.30
2023-09-07T09:10:42.138Z,3.20
2023-09-07T09:11:41.991Z,2.90
2023-09-07T09:12:41.876Z,3.30
2023-09-07T09:13:41.946Z,3.20
2023-09-07T09:14:41.879Z,3.30
2023-09-07T09:15:41.886Z,3.40
2023-09-07T09:16:42.007Z,3.60
2023-09-07T09:17:42.012Z,3.20
2023-09-07T09:18:41.912Z,3.30
2023-09-07T09:19:41.856Z,3.00
2023-09-07T09:20:41.873Z,2.90
2023-09-07T09:21:41.927Z,3.30
2023-09-07T09:22:41.892Z,2.70
2023-09-07T09:23:41.770Z,3.00
2023-09-07T09:24:41.743Z,2.50
2023-09-07T09:25:41.748Z,2.30
2023-09-07T09:26:41.751Z,2.90
2023-09-07T09:27:41.785Z,3.00
2023-09-07T09:28:41.850Z,3.20
2023-09-07T09:29:41.788Z,2.90
2023-09-07T09:30:41.729Z,2.90
2023-09-07T09:31:41.715Z,3.20
2023-09-07T09:32:41.822Z,3.20
2023-09-07T09:33:41.597Z,2.90
2023-09-07T09:34:41.789Z,3.10
2023-09-07T09:35:41.606Z,3.20
2023-09-07T09:36:41.591Z,3.20
2023-09-07T09:37:41.566Z,2.80
2023-09-07T09:38:41.639Z,2.70
2023-09-07T09:39:41.539Z,3.00
2023-09-07T09:40:41.595Z,2.90
2023-09-07T09:41:41.558Z,3.40
2023-09-07T09:42:41.514Z,2.90
2023-09-07T09:43:41.477Z,2.90
2023-09-07T09:44:41.616Z,3.00
2023-09-07T09:45:41.481Z,3.40
2023-09-07T09:46:41.606Z,2.80
2023-09-07T09:47:41.589Z,2.90
2023-09-07T09:48:41.573Z,2.90
2023-09-07T09:49:41.432Z,2.20
2023-09-07T09:50:41.473Z,3.50
2023-09-07T09:51:44.370Z,2.40
2023-09-07T09:52:41.477Z,2.60
2023-09-07T09:53:41.363Z,4.50
2023-09-07T09:54:41.364Z,2.70
2023-09-07T09:55:41.397Z,3.20
2023-09-07T09:56:41.355Z,3.00
2023-09-07T09:57:41.313Z,2.80
2023-09-07T09:58:41.400Z,2.50
2023-09-07T09:59:41.334Z,1.80
2023-09-07T10:00:41.336Z,1.90
2023-09-07T10:01:41.248Z,2.40
2023-09-07T10:02:41.408Z,2.90
2023-09-07T10:03:41.255Z,3.20
2023-09-07T10:04:41.296Z,2.90
2023-09-07T10:05:41.362Z,2.40
2023-09-07T10:06:41.212Z,2.90
2023-09-07T10:07:41.283Z,2.70
2023-09-07T10:08:41.234Z,2.90
2023-09-07T10:09:41.137Z,3.30
2023-09-07T10:10:41.293Z,2.90
2023-09-07T10:11:41.174Z,3.20
2023-09-07T10:12:41.270Z,3.80
2023-09-07T10:13:41.136Z,2.10
2023-09-07T10:14:41.095Z,2.80
2023-09-07T10:15:41.049Z,2.90
2023-09-07T10:16:41.133Z,3.20
2023-09-07T10:17:41.058Z,2.80
2023-09-07T10:18:41.099Z,2.60
2023-09-07T10:19:41.071Z,1.90
2023-09-07T10:20:41.153Z,2.60
2023-09-07T10:21:40.987Z,2.70
2023-09-07T10:22:41.036Z,3.10
2023-09-07T10:23:41.053Z,3.20
2023-09-07T10:24:41.064Z,2.10
2023-09-07T10:25:40.952Z,3.20
2023-09-07T10:26:40.976Z,3.90
2023-09-07T10:27:41.153Z,3.00
2023-09-07T10:28:41.010Z,3.30
2023-09-07T10:29:40.863Z,3.10
2023-09-07T10:30:41.125Z,3.20
2023-09-07T10:31:53.466Z,3.10
2023-09-07T10:32:41.997Z,2.90
2023-09-07T10:33:40.963Z,2.40
2023-09-07T10:34:40.876Z,3.00
2023-09-07T10:35:40.779Z,2.90
2023-09-07T10:36:40.815Z,2.80
2023-09-07T10:37:40.821Z,3.00
2023-09-07T10:38:40.782Z,2.70
2023-09-07T10:39:40.787Z,3.30
2023-09-07T10:40:40.830Z,3.10
2023-09-07T10:41:40.730Z,3.00
2023-09-07T10:42:40.726Z,3.00
2023-09-07T10:43:40.732Z,2.80
2023-09-07T10:44:40.743Z,3.00
2023-09-07T10:45:40.640Z,3.00
2023-09-07T10:46:40.800Z,3.00
2023-09-07T10:47:40.751Z,2.60
2023-09-07T10:48:40.704Z,3.10
2023-09-07T10:49:40.611Z,3.00
2023-09-07T10:50:40.749Z,2.80
2023-09-07T10:51:40.624Z,2.90
2023-09-07T10:52:40.606Z,2.00
2023-09-07T10:53:40.561Z,2.90
2023-09-07T10:54:40.576Z,2.00
2023-09-07T10:55:40.508Z,2.00
2023-09-07T10:56:40.567Z,1.30
2023-09-07T10:57:40.590Z,2.30
2023-09-07T10:58:40.613Z,2.50
2023-09-07T10:59:40.479Z,2.60
2023-09-07T11:00:40.510Z,1.80
2023-09-07T11:01:40.571Z,3.20
2023-09-07T11:02:40.673Z,3.50
2023-09-07T11:03:40.519Z,2.20
2023-09-07T11:04:40.554Z,2.00
2023-09-07T11:05:40.447Z,1.60
2023-09-07T11:06:40.424Z,3.20
2023-09-07T11:07:40.459Z,3.50
2023-09-07T11:08:40.367Z,3.00
2023-09-07T11:09:40.330Z,3.00
2023-09-07T11:10:40.411Z,2.90
2023-09-07T11:11:47.796Z,1.70
2023-09-07T11:12:40.321Z,2.50
2023-09-07T11:13:40.300Z,2.70
2023-09-07T11:14:40.362Z,2.60
2023-09-07T11:15:40.369Z,2.40
2023-09-07T11:16:40.411Z,2.30
2023-09-07T11:17:41.353Z,2.50
2023-09-07T11:18:52.296Z,2.90
2023-09-07T11:19:40.257Z,2.30
2023-09-07T11:20:40.520Z,2.60
2023-09-07T11:21:40.186Z,3.00
2023-09-07T11:22:48.790Z,2.90
2023-09-07T11:23:41.228Z,1.90
2023-09-07T11:24:40.185Z,2.40
2023-09-07T11:25:40.117Z,2.10
2023-09-07T11:26:40.243Z,2.10
2023-09-07T11:27:40.087Z,2.00
2023-09-07T11:28:40.127Z,2.40
2023-09-07T11:29:40.110Z,2.50
2023-09-07T11:30:40.118Z,2.70
2023-09-07T11:31:40.198Z,2.60
2023-09-07T11:32:40.135Z,2.40
2023-09-07T11:33:39.993Z,3.20
2023-09-07T11:34:40.099Z,2.50
2023-09-07T11:35:40.009Z,2.20
2023-09-07T11:36:40.013Z,2.90
2023-09-07T11:37:40.012Z,2.20
2023-09-07T11:38:39.981Z,2.70
2023-09-07T11:39:40.130Z,1.80
2023-09-07T11:40:40.138Z,3.10
2023-09-07T11:41:40.017Z,3.10
2023-09-07T11:42:39.970Z,2.70
2023-09-07T11:43:39.926Z,2.50
2023-09-07T11:44:39.967Z,3.20
2023-09-07T11:45:39.951Z,2.00
2023-09-07T11:46:39.938Z,1.30
2023-09-07T11:47:39.900Z,2.40
2023-09-07T11:48:39.871Z,2.80
2023-09-07T11:49:39.817Z,2.40
2023-09-07T11:50:39.839Z,2.60
2023-09-07T11:51:39.795Z,2.40
2023-09-07T11:52:39.841Z,2.80
2023-09-07T11:53:39.781Z,1.60
2023-09-07T11:54:39.749Z,2.80
2023-09-07T11:55:39.750Z,2.50
2023-09-07T11:56:39.763Z,3.10
2023-09-07T11:57:39.671Z,2.60
2023-09-07T11:58:39.801Z,1.60
2023-09-07T11:59:52.796Z,2.40
2023-09-07T12:00:40.706Z,2.70
2023-09-07T12:01:39.734Z,1.30
2023-09-07T12:02:39.805Z,2.00
2023-09-07T12:03:39.668Z,2.60
2023-09-07T12:04:41.872Z,3.40
2023-09-07T12:05:39.621Z,3.10
2023-09-07T12:06:39.597Z,2.40
2023-09-07T12:07:39.647Z,1.50
2023-09-07T12:08:39.637Z,2.50
2023-09-07T12:09:39.551Z,1.60
2023-09-07T12:10:39.578Z,1.80
2023-09-07T12:11:39.542Z,2.90
2023-09-07T12:12:39.562Z,2.60
2023-09-07T12:13:39.553Z,2.10
2023-09-07T12:14:39.478Z,3.00
2023-09-07T12:15:39.538Z,3.30
2023-09-07T12:16:39.748Z,2.10
2023-09-07T12:17:39.486Z,2.80
2023-09-07T12:18:39.516Z,4.20
2023-09-07T12:19:39.409Z,1.40
2023-09-07T12:20:39.456Z,2.10
2023-09-07T12:21:39.423Z,3.00
2023-09-07T12:22:39.526Z,2.90
2023-09-07T12:23:39.347Z,2.40
2023-09-07T12:24:39.498Z,2.60
2023-09-07T12:25:39.338Z,2.70
2023-09-07T12:26:39.331Z,2.70
2023-09-07T12:27:53.945Z,2.20
2023-09-07T12:28:39.344Z,2.40
2023-09-07T12:29:39.403Z,2.40
2023-09-07T12:30:39.405Z,2.60
2023-09-07T12:31:39.300Z,1.90
2023-09-07T12:32:39.266Z,1.70
2023-09-07T12:33:39.294Z,2.20
2023-09-07T12:34:39.287Z,2.00
2023-09-07T12:35:39.221Z,2.80
2023-09-07T12:36:39.281Z,2.50
2023-09-07T12:37:39.188Z,2.70
2023-09-07T12:38:39.283Z,1.90
2023-09-07T12:39:39.181Z,2.30
2023-09-07T12:40:39.177Z,3.10
2023-09-07T12:41:39.195Z,2.40
2023-09-07T12:42:39.145Z,1.60
2023-09-07T12:43:39.110Z,1.60
2023-09-07T12:44:39.095Z,2.60
2023-09-07T12:45:40.543Z,2.00
2023-09-07T12:46:39.110Z,2.40
2023-09-07T12:47:39.051Z,2.10
2023-09-07T12:48:39.066Z,2.50
2023-09-07T12:49:39.007Z,2.30
2023-09-07T12:50:39.004Z,2.80
2023-09-07T12:51:39.013Z,2.70
2023-09-07T12:52:39.215Z,2.90
2023-09-07T12:53:38.981Z,2.20
2023-09-07T12:54:38.985Z,2.50
2023-09-07T12:55:38.949Z,3.10
2023-09-07T12:56:46.436Z,1.90
2023-09-07T12:57:38.881Z,2.00
2023-09-07T12:58:38.990Z,2.20
2023-09-07T12:59:38.913Z,2.80
2023-09-07T13:00:38.917Z,2.40
2023-09-07T13:01:38.959Z,3.00
2023-09-07T13:02:38.945Z,2.20
2023-09-07T13:03:38.929Z,2.50
2023-09-07T13:04:38.888Z,1.60
2023-09-07T13:05:38.833Z,1.60
2023-09-07T13:06:38.896Z,2.20
2023-09-07T13:07:38.759Z,2.30
2023-09-07T13:08:38.773Z,1.30
2023-09-07T13:09:38.789Z,1.50
2023-09-07T13:10:38.790Z,2.00
2023-09-07T13:11:38.700Z,3.00
2023-09-07T13:12:38.752Z,2.40
2023-09-07T13:13:38.710Z,3.30
2023-09-07T13:14:38.670Z,2.70
2023-09-07T13:15:38.660Z,2.20
2023-09-07T13:16:38.744Z,2.00
2023-09-07T13:17:38.667Z,2.60
2023-09-07T13:18:38.672Z,2.50
2023-09-07T13:19:38.642Z,2.60
2023-09-07T13:20:38.674Z,2.40